createdAt,value
2019-04-30T00:01:19.677Z,8.63
2019-04-30T00:03:55.725Z,7.33
2019-04-30T00:06:28.879Z,6.80
2019-04-30T00:08:57.620Z,8.80
2019-04-30T00:11:28.939Z,7.07
2019-04-30T00:13:59.901Z,6.57
2019-04-30T00:16:31.118Z,8.27
2019-04-30T00:19:03.025Z,9.37
2019-04-30T00:21:33.856Z,8.77
2019-04-30T00:24:08.689Z,6.63
2019-04-30T00:26:39.843Z,8.03
2019-04-30T00:29:09.331Z,6.87
2019-04-30T00:31:40.051Z,6.37
2019-04-30T00:34:11.011Z,8.00
2019-04-30T00:36:41.861Z,7.13
2019-04-30T00:39:13.268Z,9.70
2019-04-30T00:41:47.409Z,7.37
2019-04-30T00:44:19.930Z,5.87
2019-04-30T00:46:50.107Z,7.27
2019-04-30T00:49:23.430Z,7.70
2019-04-30T00:51:54.735Z,7.60
2019-04-30T00:54:27.935Z,7.70
2019-04-30T00:57:03.747Z,8.50
2019-04-30T00:59:30.019Z,7.30
2019-04-30T01:02:07.636Z,6.60
2019-04-30T01:04:46.141Z,7.23
2019-04-30T01:07:16.871Z,7.60
2019-04-30T01:09:49.887Z,7.23
2019-04-30T01:12:27.564Z,5.73
2019-04-30T01:14:52.559Z,6.43
2019-04-30T01:17:23.354Z,8.10
2019-04-30T01:19:54.551Z,5.57
2019-04-30T01:22:31.179Z,6.30
2019-04-30T01:25:02.835Z,7.03
2019-04-30T01:27:31.450Z,6.83
2019-04-30T01:30:03.107Z,6.77
2019-04-30T01:32:33.929Z,7.10
2019-04-30T01:35:06.827Z,5.97
2019-04-30T01:37:38.714Z,7.17
2019-04-30T01:40:13.568Z,7.63
2019-04-30T01:42:47.994Z,6.27
2019-04-30T01:45:15.627Z,6.43
2019-04-30T01:47:46.333Z,6.57
2019-04-30T01:50:17.058Z,6.83
2019-04-30T01:52:53.933Z,6.70
2019-04-30T01:55:27.027Z,7.67
2019-04-30T01:57:59.386Z,7.20
2019-04-30T02:00:34.433Z,6.87
2019-04-30T02:03:04.902Z,7.63
2019-04-30T02:05:35.594Z,5.93
2019-04-30T02:08:08.378Z,5.57
2019-04-30T02:10:40.311Z,7.97
2019-04-30T02:13:11.095Z,8.43
2019-04-30T02:15:41.794Z,8.83
2019-04-30T02:18:12.527Z,6.70
2019-04-30T02:20:43.269Z,7.40
2019-04-30T02:23:13.734Z,7.83
2019-04-30T02:25:44.107Z,9.67
2019-04-30T02:28:14.882Z,6.63
2019-04-30T02:30:45.706Z,5.90
2019-04-30T02:33:19.529Z,8.03
2019-04-30T02:36:00.392Z,7.57
2019-04-30T02:38:33.760Z,7.73
2019-04-30T02:41:04.633Z,8.97
2019-04-30T02:43:35.803Z,5.60
2019-04-30T02:46:06.614Z,7.00
2019-04-30T02:48:39.787Z,7.17
2019-04-30T02:51:14.328Z,9.27
2019-04-30T02:54:00.588Z,6.53
2019-04-30T02:56:31.878Z,8.93
2019-04-30T02:59:03.754Z,7.07
2019-04-30T03:01:34.686Z,7.83
2019-04-30T03:04:05.502Z,6.57
2019-04-30T03:06:36.321Z,9.40
2019-04-30T03:09:09.930Z,6.97
2019-04-30T03:11:40.822Z,6.47
2019-04-30T03:14:11.953Z,7.80
2019-04-30T03:16:52.771Z,6.63
2019-04-30T03:19:29.318Z,6.77
2019-04-30T03:22:01.019Z,8.10
2019-04-30T03:24:31.861Z,7.87
2019-04-30T03:27:02.691Z,6.53
2019-04-30T03:29:33.108Z,6.10
2019-04-30T03:32:03.863Z,5.40
2019-04-30T03:34:34.691Z,6.40
2019-04-30T03:37:05.526Z,6.63
2019-04-30T03:39:36.264Z,5.13
2019-04-30T03:42:09.765Z,6.00
2019-04-30T03:44:40.288Z,8.80
2019-04-30T03:47:11.337Z,8.03
2019-04-30T03:49:41.820Z,6.33
2019-04-30T03:52:13.355Z,6.97
2019-04-30T03:54:44.459Z,6.73
2019-04-30T03:57:15.188Z,7.03
2019-04-30T03:59:45.935Z,8.93
2019-04-30T04:02:20.591Z,5.80
2019-04-30T04:04:52.650Z,7.30
2019-04-30T04:07:30.739Z,7.37
2019-04-30T04:10:20.786Z,7.33
2019-04-30T04:12:51.665Z,5.60
2019-04-30T04:15:22.499Z,6.17
2019-04-30T04:17:52.957Z,6.03
2019-04-30T04:20:23.647Z,5.90
2019-04-30T04:22:54.393Z,6.37
2019-04-30T04:25:25.224Z,7.50
2019-04-30T04:27:55.957Z,5.83
2019-04-30T04:30:26.782Z,7.83
2019-04-30T04:32:59.692Z,7.30
2019-04-30T04:35:30.220Z,7.10
2019-04-30T04:38:01.138Z,6.13
2019-04-30T04:40:31.979Z,7.00
2019-04-30T04:43:02.367Z,7.03
2019-04-30T04:45:33.183Z,6.80
2019-04-30T04:48:11.117Z,6.70
2019-04-30T04:50:42.271Z,8.33
2019-04-30T04:53:13.019Z,8.37
2019-04-30T04:55:43.856Z,7.60
2019-04-30T04:58:14.701Z,6.73
2019-04-30T05:00:45.427Z,8.37
2019-04-30T05:03:17.455Z,5.83
2019-04-30T05:05:49.956Z,8.77
2019-04-30T05:08:20.700Z,7.57
2019-04-30T05:10:51.426Z,8.43
2019-04-30T05:13:22.262Z,6.63
2019-04-30T05:15:53.036Z,7.20
2019-04-30T05:18:23.948Z,7.97
2019-04-30T05:20:54.682Z,7.10
2019-04-30T05:23:25.402Z,6.97
2019-04-30T05:25:55.770Z,6.57
2019-04-30T05:28:26.578Z,7.03
2019-04-30T05:30:59.226Z,8.10
2019-04-30T05:33:30.013Z,6.57
2019-04-30T05:36:00.838Z,6.40
2019-04-30T05:38:31.573Z,7.40
2019-04-30T05:41:02.399Z,7.33
2019-04-30T05:43:33.137Z,6.40
2019-04-30T05:46:03.972Z,7.03
2019-04-30T05:48:34.723Z,6.93
2019-04-30T05:51:05.544Z,6.27
2019-04-30T05:53:36.267Z,7.13
2019-04-30T05:56:07.032Z,7.93
2019-04-30T05:58:39.729Z,7.67
2019-04-30T06:01:10.313Z,7.37
2019-04-30T06:03:41.169Z,7.93
2019-04-30T06:06:11.875Z,7.47
2019-04-30T06:08:44.385Z,7.70
2019-04-30T06:11:16.396Z,10.67
2019-04-30T06:14:04.183Z,6.20
2019-04-30T06:16:35.016Z,5.87
2019-04-30T06:19:06.009Z,7.93
2019-04-30T06:21:36.928Z,6.03
2019-04-30T06:24:08.291Z,5.60
2019-04-30T06:26:40.346Z,6.80
2019-04-30T06:29:11.181Z,8.60
2019-04-30T06:31:43.315Z,7.33
2019-04-30T06:34:14.431Z,7.47
2019-04-30T06:36:51.032Z,6.87
2019-04-30T06:39:18.756Z,6.73
2019-04-30T06:41:50.417Z,8.13
2019-04-30T06:44:21.288Z,6.30
2019-04-30T06:46:52.569Z,6.47
2019-04-30T06:49:25.306Z,5.57
2019-04-30T06:51:56.269Z,4.97
2019-04-30T06:54:28.764Z,5.43
2019-04-30T06:56:59.714Z,5.17
2019-04-30T06:59:30.578Z,6.50
2019-04-30T07:02:01.340Z,6.07
2019-04-30T07:04:32.312Z,4.60
2019-04-30T07:07:03.240Z,5.60
2019-04-30T07:09:51.402Z,6.57
2019-04-30T07:12:25.418Z,4.37
2019-04-30T07:14:49.331Z,7.23
2019-04-30T07:17:20.089Z,6.03
2019-04-30T07:19:56.408Z,4.43
2019-04-30T07:22:36.685Z,5.70
2019-04-30T07:24:55.360Z,5.93
2019-04-30T07:27:26.223Z,4.70
2019-04-30T07:29:57.045Z,3.63
2019-04-30T07:32:28.824Z,5.33
2019-04-30T07:34:59.743Z,5.93
2019-04-30T07:37:30.685Z,5.10
2019-04-30T07:40:01.513Z,4.03
2019-04-30T07:42:36.998Z,4.00
2019-04-30T07:45:07.030Z,4.50
2019-04-30T07:47:39.551Z,4.13
2019-04-30T07:50:11.236Z,5.27
2019-04-30T07:52:57.581Z,3.90
2019-04-30T07:55:14.713Z,4.43
2019-04-30T07:57:45.675Z,5.83
2019-04-30T08:00:16.488Z,4.67
2019-04-30T08:02:50.481Z,8.17
2019-04-30T08:05:24.019Z,4.50
2019-04-30T08:07:54.627Z,4.23
2019-04-30T08:10:25.475Z,3.40
2019-04-30T08:12:56.630Z,3.93
2019-04-30T08:15:29.572Z,5.40
2019-04-30T08:18:05.461Z,4.47
2019-04-30T08:20:33.227Z,5.00
2019-04-30T08:23:15.547Z,5.20
2019-04-30T08:25:38.977Z,4.20
2019-04-30T08:28:09.244Z,4.17
2019-04-30T08:30:40.051Z,4.30
2019-04-30T08:33:10.784Z,4.03
2019-04-30T08:35:41.224Z,3.50
2019-04-30T08:38:12.115Z,4.83
2019-04-30T08:40:53.380Z,3.60
2019-04-30T08:43:15.163Z,4.30
2019-04-30T08:45:46.099Z,4.87
2019-04-30T08:48:18.845Z,5.33
2019-04-30T08:50:49.995Z,6.20
2019-04-30T08:53:29.811Z,4.53
2019-04-30T08:55:53.735Z,3.60
2019-04-30T08:58:24.571Z,3.30
2019-04-30T09:00:55.293Z,3.23
2019-04-30T09:03:26.041Z,4.37
2019-04-30T09:05:58.930Z,4.00
2019-04-30T09:08:29.707Z,5.03
2019-04-30T09:11:00.602Z,3.93
2019-04-30T09:13:31.437Z,4.17
2019-04-30T09:16:02.261Z,4.27
2019-04-30T09:18:33.035Z,5.13
2019-04-30T09:21:06.351Z,4.97
2019-04-30T09:23:47.478Z,3.83
2019-04-30T09:26:08.982Z,3.17
2019-04-30T09:28:41.106Z,3.77
2019-04-30T09:31:11.887Z,3.37
2019-04-30T09:33:42.622Z,3.47
2019-04-30T09:36:13.522Z,2.90
2019-04-30T09:38:44.403Z,2.80
2019-04-30T09:41:15.152Z,3.43
2019-04-30T09:43:45.864Z,3.40
2019-04-30T09:46:24.506Z,3.37
2019-04-30T09:48:50.806Z,2.83
2019-04-30T09:51:24.355Z,2.90
2019-04-30T09:53:59.173Z,3.53
2019-04-30T09:56:26.856Z,3.27
2019-04-30T09:58:59.279Z,7.17
2019-04-30T10:01:32.568Z,5.03
2019-04-30T10:04:02.768Z,2.90
2019-04-30T10:06:39.694Z,3.50
2019-04-30T10:09:09.647Z,3.30
2019-04-30T10:11:42.398Z,4.90
2019-04-30T10:14:13.132Z,4.00
2019-04-30T10:16:49.563Z,3.80
2019-04-30T10:19:20.460Z,2.80
2019-04-30T10:21:51.276Z,3.80
2019-04-30T10:24:21.865Z,4.80
2019-04-30T10:26:52.627Z,3.40
2019-04-30T10:29:23.476Z,4.10
2019-04-30T10:31:55.767Z,3.83
2019-04-30T10:34:26.595Z,2.97
2019-04-30T10:36:59.283Z,2.57
2019-04-30T10:39:31.450Z,4.27
2019-04-30T10:42:02.456Z,3.27
2019-04-30T10:44:33.181Z,3.93
2019-04-30T10:47:03.923Z,3.90
2019-04-30T10:49:34.646Z,3.40
2019-04-30T10:52:05.904Z,3.17
2019-04-30T10:54:36.290Z,3.23
2019-04-30T10:57:08.677Z,3.87
2019-04-30T10:59:39.533Z,3.27
2019-04-30T11:02:10.277Z,4.03
2019-04-30T11:04:40.720Z,5.27
2019-04-30T11:07:11.735Z,5.03
2019-04-30T11:09:42.600Z,4.30
2019-04-30T11:12:13.568Z,3.83
2019-04-30T11:14:44.342Z,3.77
2019-04-30T11:17:15.238Z,3.20
2019-04-30T11:19:46.357Z,3.30
2019-04-30T11:22:17.522Z,3.57
2019-04-30T11:24:58.746Z,4.37
2019-04-30T11:27:21.537Z,3.60
2019-04-30T11:29:53.151Z,3.37
2019-04-30T11:32:25.229Z,4.93
2019-04-30T11:34:56.170Z,3.17
2019-04-30T11:37:26.919Z,3.30
2019-04-30T11:39:57.758Z,5.23
2019-04-30T11:42:28.571Z,3.43
2019-04-30T11:44:59.338Z,8.63
2019-04-30T11:47:31.370Z,4.47
2019-04-30T11:50:02.626Z,4.07
2019-04-30T11:52:33.459Z,4.37
2019-04-30T11:55:06.226Z,6.10
2019-04-30T11:57:36.970Z,4.33
2019-04-30T12:00:11.095Z,4.87
2019-04-30T12:02:42.228Z,3.57
2019-04-30T12:05:14.709Z,5.47
2019-04-30T12:07:48.306Z,4.93
2019-04-30T12:10:24.108Z,3.23
2019-04-30T12:12:54.936Z,7.47
2019-04-30T12:15:25.634Z,4.77
2019-04-30T12:17:56.379Z,5.37
2019-04-30T12:20:27.302Z,3.97
2019-04-30T12:22:59.158Z,5.60
2019-04-30T12:25:30.457Z,4.97
2019-04-30T12:28:01.448Z,4.57
2019-04-30T12:30:32.318Z,6.77
2019-04-30T12:33:03.136Z,6.10
2019-04-30T12:35:33.990Z,4.10
2019-04-30T12:38:04.808Z,4.90
2019-04-30T12:40:35.320Z,3.93
2019-04-30T12:43:06.378Z,5.70
2019-04-30T12:45:39.304Z,6.43
2019-04-30T12:48:11.328Z,5.57
2019-04-30T12:50:46.156Z,4.80
2019-04-30T12:53:33.573Z,6.83
2019-04-30T12:56:06.459Z,4.20
2019-04-30T12:58:37.636Z,5.17
2019-04-30T13:01:09.044Z,4.90
2019-04-30T13:03:40.123Z,5.10
2019-04-30T13:06:11.776Z,5.07
2019-04-30T13:08:43.369Z,6.63
2019-04-30T13:11:14.660Z,3.70
2019-04-30T13:13:46.463Z,4.37
2019-04-30T13:16:19.304Z,3.90
2019-04-30T13:18:49.699Z,7.27
2019-04-30T13:21:20.481Z,4.47
2019-04-30T13:23:51.309Z,3.90
2019-04-30T13:26:22.171Z,5.23
2019-04-30T13:28:54.739Z,3.97
2019-04-30T13:31:25.593Z,3.42
2019-04-30T13:34:14.270Z,3.73
2019-04-30T13:36:45.141Z,3.67
2019-04-30T13:39:19.431Z,3.30
2019-04-30T13:41:51.235Z,3.23
2019-04-30T13:44:29.516Z,4.77
2019-04-30T13:47:00.765Z,3.35
2019-04-30T13:49:31.647Z,6.10
2019-04-30T13:52:02.795Z,3.00
2019-04-30T13:54:33.929Z,5.00
2019-04-30T13:57:04.957Z,4.28
2019-04-30T13:59:35.832Z,3.83
2019-04-30T14:02:08.638Z,3.10
2019-04-30T14:04:58.641Z,4.03
2019-04-30T14:07:39.947Z,3.20
2019-04-30T14:10:10.243Z,5.43
2019-04-30T14:12:42.769Z,6.13
2019-04-30T14:15:19.091Z,4.00
2019-04-30T14:17:52.829Z,4.90
2019-04-30T14:20:23.657Z,3.57
2019-04-30T14:22:57.353Z,4.27
2019-04-30T14:25:27.251Z,4.20
2019-04-30T14:27:59.263Z,4.97
2019-04-30T14:30:32.270Z,5.60
2019-04-30T14:33:03.179Z,5.95
2019-04-30T14:35:34.577Z,4.43
2019-04-30T14:38:05.570Z,3.53
2019-04-30T14:40:36.838Z,3.73
2019-04-30T14:43:12.396Z,3.90
2019-04-30T14:46:02.413Z,3.60
2019-04-30T14:48:35.893Z,3.60
2019-04-30T14:51:07.559Z,3.57
2019-04-30T14:53:45.843Z,3.55
2019-04-30T14:56:34.979Z,3.77
2019-04-30T14:59:12.868Z,5.57
2019-04-30T15:01:45.235Z,5.60
2019-04-30T15:04:16.119Z,4.47
2019-04-30T15:06:48.650Z,3.73
2019-04-30T15:09:19.491Z,3.83
2019-04-30T15:11:50.211Z,4.13
2019-04-30T15:14:20.971Z,4.03
2019-04-30T15:16:51.777Z,3.77
2019-04-30T15:19:22.627Z,3.93
2019-04-30T15:21:53.471Z,3.67
2019-04-30T15:24:29.316Z,3.90
2019-04-30T15:26:59.877Z,4.78
2019-04-30T15:29:30.590Z,4.87
2019-04-30T15:32:01.425Z,4.00
2019-04-30T15:34:32.175Z,5.27
2019-04-30T15:37:03.191Z,4.05
2019-04-30T15:39:35.539Z,4.15
2019-04-30T15:42:06.657Z,3.77
2019-04-30T15:44:43.271Z,3.77
2019-04-30T15:47:10.435Z,4.83
2019-04-30T15:49:42.903Z,4.20
2019-04-30T15:52:13.959Z,3.67
2019-04-30T15:54:49.081Z,5.60
2019-04-30T15:57:19.468Z,4.63
2019-04-30T15:59:50.437Z,3.50
2019-04-30T16:02:28.766Z,3.77
2019-04-30T16:05:07.111Z,3.47
2019-04-30T16:07:40.741Z,4.57
2019-04-30T16:10:19.396Z,3.37
2019-04-30T16:12:53.405Z,4.33
2019-04-30T16:15:24.239Z,3.43
2019-04-30T16:17:58.733Z,4.57
2019-04-30T16:20:30.093Z,3.50
2019-04-30T16:23:01.054Z,3.73
2019-04-30T16:25:31.782Z,5.17
2019-04-30T16:28:02.204Z,3.58
2019-04-30T16:30:32.952Z,3.97
2019-04-30T16:33:03.706Z,4.20
2019-04-30T16:35:34.597Z,4.57
2019-04-30T16:38:05.592Z,3.90
2019-04-30T16:40:38.610Z,5.17
2019-04-30T16:43:09.618Z,5.50
2019-04-30T16:45:40.448Z,4.27
2019-04-30T16:48:12.110Z,3.47
2019-04-30T16:50:43.018Z,4.20
2019-04-30T16:53:13.855Z,4.47
2019-04-30T16:55:44.742Z,4.00
2019-04-30T16:58:15.192Z,4.73
2019-04-30T17:00:45.700Z,4.17
2019-04-30T17:03:20.987Z,4.63
2019-04-30T17:05:53.517Z,4.13
2019-04-30T17:08:26.067Z,3.77
2019-04-30T17:11:07.539Z,4.75
2019-04-30T17:13:39.909Z,3.92
2019-04-30T17:16:21.008Z,3.67
2019-04-30T17:18:51.746Z,4.35
2019-04-30T17:21:22.756Z,4.15
2019-04-30T17:23:53.498Z,4.70
2019-04-30T17:26:24.346Z,5.95
2019-04-30T17:28:54.874Z,4.08
2019-04-30T17:31:25.403Z,3.67
2019-04-30T17:33:55.940Z,4.45
2019-04-30T17:36:26.874Z,6.87
2019-04-30T17:38:57.354Z,4.28
2019-04-30T17:41:27.798Z,3.98
2019-04-30T17:43:59.172Z,3.87
2019-04-30T17:46:30.018Z,6.85
2019-04-30T17:49:00.944Z,3.67
2019-04-30T17:51:31.822Z,4.20
2019-04-30T17:54:14.623Z,3.83
2019-04-30T17:56:46.195Z,3.67
2019-04-30T17:59:16.992Z,3.30
2019-04-30T18:01:49.660Z,5.90
2019-04-30T18:04:22.213Z,3.43
2019-04-30T18:06:53.520Z,3.67
2019-04-30T18:09:24.456Z,5.17
2019-04-30T18:11:55.296Z,3.67
2019-04-30T18:14:26.222Z,4.08
2019-04-30T18:16:58.868Z,3.67
2019-04-30T18:19:40.087Z,3.83
2019-04-30T18:22:15.335Z,5.40
2019-04-30T18:24:54.198Z,4.30
2019-04-30T18:27:29.466Z,3.80
2019-04-30T18:30:00.306Z,5.83
2019-04-30T18:32:31.400Z,4.10
2019-04-30T18:35:02.288Z,4.43
2019-04-30T18:37:33.148Z,5.03
2019-04-30T18:40:04.330Z,5.30
2019-04-30T18:42:34.879Z,4.97
2019-04-30T18:45:06.472Z,3.70
2019-04-30T18:47:37.220Z,5.70
2019-04-30T18:50:09.309Z,5.23
2019-04-30T18:52:41.033Z,4.63
2019-04-30T18:55:12.164Z,5.93
2019-04-30T18:57:55.794Z,4.00
2019-04-30T19:00:19.778Z,4.27
2019-04-30T19:02:50.836Z,6.93
2019-04-30T19:05:25.971Z,8.50
2019-04-30T19:07:59.138Z,5.67
2019-04-30T19:10:37.805Z,5.83
2019-04-30T19:13:19.294Z,5.07
2019-04-30T19:16:19.637Z,5.27
2019-04-30T19:18:50.736Z,5.33
2019-04-30T19:21:21.486Z,7.17
2019-04-30T19:23:51.894Z,5.70
2019-04-30T19:26:22.837Z,5.77
2019-04-30T19:28:53.675Z,6.13
2019-04-30T19:31:24.224Z,6.83
2019-04-30T19:33:55.141Z,7.20
2019-04-30T19:36:35.026Z,8.30
2019-04-30T19:38:59.780Z,8.13
2019-04-30T19:41:30.849Z,10.03
2019-04-30T19:44:01.663Z,10.50
2019-04-30T19:46:32.615Z,9.50
2019-04-30T19:49:03.556Z,10.27
2019-04-30T19:51:34.362Z,8.20
2019-04-30T19:54:05.546Z,8.23
2019-04-30T19:56:36.549Z,11.97
2019-04-30T19:59:08.738Z,9.03
2019-04-30T20:01:39.856Z,8.37
2019-04-30T20:04:10.597Z,11.03
2019-04-30T20:06:41.440Z,8.67
2019-04-30T20:09:12.323Z,9.70
2019-04-30T20:11:43.223Z,8.77
2019-04-30T20:14:15.574Z,10.67
2019-04-30T20:16:46.317Z,11.37
2019-04-30T20:19:17.153Z,12.57
2019-04-30T20:21:51.359Z,11.70
2019-04-30T20:24:22.006Z,10.10
2019-04-30T20:27:04.209Z,9.37
2019-04-30T20:29:25.531Z,10.60
2019-04-30T20:31:56.355Z,10.93
2019-04-30T20:34:29.276Z,9.47
2019-04-30T20:37:00.459Z,7.93
2019-04-30T20:39:32.961Z,10.93
2019-04-30T20:42:03.807Z,10.30
2019-04-30T20:44:34.572Z,13.07
2019-04-30T20:47:05.704Z,12.30
2019-04-30T20:49:36.217Z,12.87
2019-04-30T20:52:10.408Z,10.40
2019-04-30T20:54:41.160Z,10.03
2019-04-30T20:57:12.205Z,12.03
2019-04-30T20:59:43.126Z,10.70
2019-04-30T21:02:13.521Z,10.97
2019-04-30T21:04:44.283Z,11.03
2019-04-30T21:07:16.929Z,13.80
2019-04-30T21:09:47.983Z,12.10
2019-04-30T21:12:18.997Z,10.33
2019-04-30T21:14:50.086Z,14.17
2019-04-30T21:17:21.045Z,10.90
2019-04-30T21:20:04.353Z,12.00
2019-04-30T21:22:38.863Z,10.00
2019-04-30T21:25:12.319Z,12.53
2019-04-30T21:27:41.760Z,11.90
2019-04-30T21:30:12.830Z,11.23
2019-04-30T21:32:56.941Z,12.00
2019-04-30T21:35:29.542Z,10.87
2019-04-30T21:38:02.179Z,11.20
2019-04-30T21:40:33.076Z,11.30
2019-04-30T21:43:03.914Z,9.00
2019-04-30T21:45:34.627Z,8.73
2019-04-30T21:48:05.307Z,8.67
2019-04-30T21:50:36.101Z,9.30
2019-04-30T21:53:06.860Z,7.20
2019-04-30T21:55:39.663Z,7.70
2019-04-30T21:58:10.058Z,7.67
2019-04-30T22:00:42.441Z,8.90
2019-04-30T22:03:12.928Z,7.13
2019-04-30T22:05:43.997Z,8.83
2019-04-30T22:08:14.761Z,7.33
2019-04-30T22:10:45.393Z,10.37
2019-04-30T22:13:15.915Z,8.47
2019-04-30T22:15:46.962Z,10.03
2019-04-30T22:18:17.845Z,9.73
2019-04-30T22:20:49.835Z,9.07
2019-04-30T22:23:23.802Z,8.50
2019-04-30T22:25:54.693Z,8.60
2019-04-30T22:28:25.575Z,8.57
2019-04-30T22:30:56.404Z,8.80
2019-04-30T22:33:29.299Z,8.63
2019-04-30T22:36:05.243Z,9.83
2019-04-30T22:38:43.937Z,8.30
2019-04-30T22:41:14.770Z,10.07
2019-04-30T22:43:45.603Z,8.80
2019-04-30T22:46:19.445Z,9.90
2019-04-30T22:48:50.555Z,9.70
2019-04-30T22:51:21.495Z,8.93
2019-04-30T22:53:52.329Z,10.23
2019-04-30T22:56:23.195Z,8.57
2019-04-30T22:58:54.205Z,8.73
2019-04-30T23:01:26.739Z,8.70
2019-04-30T23:03:59.259Z,9.47
2019-04-30T23:06:29.835Z,8.33
2019-04-30T23:09:00.281Z,8.63
2019-04-30T23:11:31.157Z,9.07
2019-04-30T23:14:02.089Z,9.33
2019-04-30T23:16:32.926Z,9.23
2019-04-30T23:19:03.999Z,8.43
2019-04-30T23:21:34.903Z,10.77
2019-04-30T23:24:05.841Z,11.30
2019-04-30T23:26:36.693Z,8.90
2019-04-30T23:29:07.421Z,9.63
2019-04-30T23:31:38.161Z,10.87
2019-04-30T23:34:17.731Z,10.10
2019-04-30T23:36:41.467Z,12.20
2019-04-30T23:39:12.430Z,11.67
2019-04-30T23:41:43.276Z,11.00
2019-04-30T23:44:13.891Z,10.47
2019-04-30T23:46:44.610Z,10.37
2019-04-30T23:49:15.558Z,10.80
2019-04-30T23:51:46.279Z,11.73
2019-04-30T23:54:17.129Z,11.87
2019-04-30T23:56:47.998Z,12.57
2019-04-30T23:59:18.892Z,14.30
